Dades meteomassalio
Diari Summary for Juliol 2, 2017 Units:  Metric    English   Both
« Previous Day
Next Day »
Diari Semanal Mensual Anual Personalitzat
  Maxima: Minima: Mijana:
Temperatura: -17.8 °C -10.1 °C -6.6 °C
Rosada: -17.8 °C -13.8 °C -12.8 °C
Humitat: Humidity % 33 % 50 %
Velocitat del vent: 0 km/h 0 km/h 33.5 km/h
Racha vent: 0 km/h - -
Vent:- - WNW
Pressio: 0 hPa 34554.1 hPa -
Pluja: 0 mm    
Historical Graphs
 
 
Tabular Data for Juliol 2, 2017
Time Temperature Dew Point Pressure Wind Wind Speed Wind Gust Humidity Rainfall Rate (Hourly) solar Conditions
-17.8 °C -17.8 °C 0 hPa Calm     Humidity % 0 mm SolarRadiationWatts/m^2 W/m2 Conditions
00:03 -8.8 °C -12.7 °C 34703.1 hPa West 29.8 km/h 29.8 km/h 63 % 0 mm 0.0 W/m2 CLR
00:08 -8.8 °C -12.7 °C 34703.1 hPa West 29.8 km/h 29.8 km/h 63 % 0 mm 0.0 W/m2 CLR
00:13 -8.8 °C -12.8 °C 34703.1 hPa WNW 20.9 km/h 20.9 km/h 63 % 0 mm 0.0 W/m2 CLR
00:18 -8.9 °C -12.8 °C 34703.1 hPa West 38.8 km/h 38.8 km/h 63 % 0 mm 0.0 W/m2 CLR
00:23 -8.9 °C -12.8 °C 34703.1 hPa WNW 32.8 km/h 32.8 km/h 63 % 0 mm 0.0 W/m2 CLR
00:28 -8.9 °C -12.9 °C 34703.1 hPa West 29.8 km/h 29.8 km/h 63 % 0 mm 0.0 W/m2 CLR
00:33 -9 °C -12.9 °C 34703.1 hPa West 32.8 km/h 32.8 km/h 63 % 0 mm 0.0 W/m2 CLR
00:38 -9.1 °C -12.9 °C 34703.1 hPa WNW 32.8 km/h 32.8 km/h 63 % 0 mm 0.0 W/m2 CLR
00:43 -9.1 °C -12.9 °C 34703.1 hPa West 36.2 km/h 36.2 km/h 64 % 0 mm 0.0 W/m2 CLR
00:48 -9.1 °C -13 °C 34716.7 hPa West 32.8 km/h 32.8 km/h 63 % 0 mm 0.0 W/m2 CLR
00:53 -9.1 °C -13 °C 34703.1 hPa WNW 41.7 km/h 41.7 km/h 63 % 0 mm 0.0 W/m2 CLR
00:58 -9.2 °C -13.1 °C 34716.7 hPa NW 29.8 km/h 29.8 km/h 63 % 0 mm 0.0 W/m2 CLR
01:03 -9.2 °C -13 °C 34716.7 hPa West 35.7 km/h 35.7 km/h 64 % 0 mm 0.0 W/m2 CLR
01:08 -9.3 °C -13 °C 34703.1 hPa West 56.6 km/h 56.6 km/h 64 % 0 mm 0.0 W/m2 CLR
01:13 -9.3 °C -13 °C 34703.1 hPa NW 35.7 km/h 35.7 km/h 64 % 0 mm 0.0 W/m2 CLR
01:18 -9.3 °C -13 °C 34703.1 hPa WNW 32.8 km/h 32.8 km/h 64 % 0 mm 0.0 W/m2 CLR
01:23 -9.3 °C -13 °C 34703.1 hPa West 38.8 km/h 38.8 km/h 64 % 0 mm 0.0 W/m2 CLR
01:28 -9.3 °C -13.1 °C 34716.7 hPa WNW 38.8 km/h 38.8 km/h 64 % 0 mm 0.0 W/m2 CLR
01:33 -9.3 °C -13.1 °C 34716.7 hPa West 35.7 km/h 35.7 km/h 64 % 0 mm 0.0 W/m2 CLR
01:38 -9.3 °C -13.1 °C 34716.7 hPa West 41.7 km/h 41.7 km/h 64 % 0 mm 0.0 W/m2 CLR
01:43 -9.3 °C -13.1 °C 34716.7 hPa West 41.7 km/h 41.7 km/h 64 % 0 mm 0.0 W/m2 CLR
01:48 -9.3 °C -13.2 °C 34716.7 hPa West 38.8 km/h 38.8 km/h 63 % 0 mm 0.0 W/m2 CLR
01:53 -9.3 °C -13.2 °C 34703.1 hPa WNW 59.5 km/h 59.5 km/h 63 % 0 mm 0.0 W/m2 CLR
01:58 -9.4 °C -13.3 °C 34703.1 hPa West 38.8 km/h 38.8 km/h 63 % 0 mm 0.0 W/m2 CLR
02:03 -9.4 °C -13.3 °C 34703.1 hPa WNW 41.7 km/h 41.7 km/h 63 % 0 mm 0.0 W/m2 CLR
02:08 -9.4 °C -13.3 °C 34703.1 hPa West 35.7 km/h 35.7 km/h 63 % 0 mm 0.0 W/m2 CLR
02:13 -9.5 °C -13.4 °C 34703.1 hPa West 41.7 km/h 41.7 km/h 63 % 0 mm 0.0 W/m2 CLR
02:18 -9.5 °C -13.4 °C 34703.1 hPa West 50.7 km/h 50.7 km/h 63 % 0 mm 0.0 W/m2 CLR
02:23 -9.5 °C -13.4 °C 34703.1 hPa WNW 50.7 km/h 50.7 km/h 63 % 0 mm 0.0 W/m2 CLR
02:28 -9.5 °C -13.4 °C 34703.1 hPa WNW 44.1 km/h 44.1 km/h 63 % 0 mm 0.0 W/m2 CLR
02:33 -9.5 °C -13.4 °C 34703.1 hPa West 59.5 km/h 59.5 km/h 63 % 0 mm 0.0 W/m2 CLR
02:38 -9.6 °C -13.4 °C 34703.1 hPa WNW 49.2 km/h 49.2 km/h 63 % 0 mm 0.0 W/m2 CLR
02:43 -9.6 °C -13.4 °C 34703.1 hPa West 53.6 km/h 53.6 km/h 63 % 0 mm 0.0 W/m2 CLR
02:48 -9.6 °C -13.4 °C 34703.1 hPa West 53.6 km/h 53.6 km/h 63 % 0 mm 0.0 W/m2 CLR
02:53 -9.6 °C -13.4 °C 34703.1 hPa WSW 56.6 km/h 56.6 km/h 63 % 0 mm 0.0 W/m2 CLR
02:58 -9.6 °C -13.4 °C 34693 hPa WNW 50.7 km/h 50.7 km/h 63 % 0 mm 0.0 W/m2 CLR
03:03 -9.6 °C -13.4 °C 34693 hPa West 65.5 km/h 65.5 km/h 63 % 0 mm 0.0 W/m2 CLR
03:08 -9.6 °C -13.4 °C 34693 hPa West 68.6 km/h 68.6 km/h 63 % 0 mm 0.0 W/m2 CLR
03:13 -9.6 °C -13.4 °C 34693 hPa West 59.5 km/h 59.5 km/h 63 % 0 mm 0.0 W/m2 CLR
03:14 -9.6 °C -13.3 °C 34693 hPa West 59.5 km/h 59.5 km/h 64 % 0 mm 0.0 W/m2 CLR
03:19 -9.6 °C -13.3 °C 34682.8 hPa WNW 54.4 km/h 54.4 km/h 64 % 0 mm 0.0 W/m2 CLR
03:24 -9.6 °C -13.3 °C 34682.8 hPa WSW 54.4 km/h 54.4 km/h 64 % 0 mm 0.0 W/m2 CLR
03:29 -9.6 °C -13.3 °C 34682.8 hPa WNW 65.5 km/h 65.5 km/h 64 % 0 mm 0.0 W/m2 CLR
03:34 -9.6 °C -13.4 °C 34682.8 hPa West 62.6 km/h 62.6 km/h 64 % 0 mm 0.0 W/m2 CLR
03:39 -9.7 °C -13.4 °C 34682.8 hPa NW 74.5 km/h 74.5 km/h 64 % 0 mm 0.0 W/m2 CLR
03:44 -9.6 °C -13.4 °C 34682.8 hPa WNW 59.5 km/h 59.5 km/h 64 % 0 mm 0.0 W/m2 CLR
03:49 -9.7 °C -13.4 °C 34693 hPa WNW 62.6 km/h 62.6 km/h 64 % 0 mm 0.0 W/m2 CLR
03:54 -9.7 °C -13.3 °C 34682.8 hPa West 59.5 km/h 59.5 km/h 65 % 0 mm 0.0 W/m2 CLR
03:59 -9.7 °C -13.4 °C 34682.8 hPa WNW 47.6 km/h 47.6 km/h 64 % 0 mm 0.0 W/m2 CLR
04:04 -9.7 °C -13.3 °C 34693 hPa West 47.6 km/h 47.6 km/h 65 % 0 mm 0.0 W/m2 CLR
04:05 -9.7 °C -13.4 °C 34693 hPa West 50.7 km/h 50.7 km/h 64 % 0 mm 0.0 W/m2 CLR
04:10 -9.7 °C -13.4 °C 34693 hPa WNW 44.7 km/h 44.7 km/h 64 % 0 mm 0.0 W/m2 CLR
04:15 -9.7 °C -13.3 °C 34693 hPa WNW 44.7 km/h 44.7 km/h 65 % 0 mm 0.0 W/m2 CLR
04:20 -9.7 °C -13.4 °C 34693 hPa WNW 38.8 km/h 38.8 km/h 64 % 0 mm 0.0 W/m2 CLR
04:25 -9.7 °C -13.4 °C 34693 hPa WNW 38.8 km/h 38.8 km/h 64 % 0 mm 0.0 W/m2 CLR
04:30 -9.7 °C -13.4 °C 34693 hPa West 49.2 km/h 49.2 km/h 64 % 0 mm 0.0 W/m2 CLR
04:35 -9.8 °C -13.5 °C 34682.8 hPa WNW 44.7 km/h 44.7 km/h 64 % 0 mm 0.0 W/m2 CLR
04:40 -9.8 °C -13.4 °C 34682.8 hPa WNW 47.6 km/h 47.6 km/h 65 % 0 mm 0.0 W/m2 CLR
04:45 -9.8 °C -13.4 °C 34682.8 hPa WNW 44.7 km/h 44.7 km/h 65 % 0 mm 0.0 W/m2 CLR
04:50 -9.8 °C -13.4 °C 34682.8 hPa WNW 44.7 km/h 44.7 km/h 65 % 0 mm 0.0 W/m2 CLR
04:55 -9.8 °C -13.4 °C 34693 hPa West 44.7 km/h 44.7 km/h 65 % 0 mm 0.0 W/m2 CLR
05:00 -9.9 °C -13.5 °C 34693 hPa West 38.8 km/h 38.8 km/h 65 % 0 mm 0.0 W/m2 CLR
05:05 -9.9 °C -13.4 °C 34693 hPa West 44.7 km/h 44.7 km/h 66 % 0 mm 0.0 W/m2 CLR
05:10 -9.9 °C -13.6 °C 34693 hPa West 31.1 km/h 31.1 km/h 65 % 0 mm 0.0 W/m2 CLR
05:15 -9.9 °C -13.4 °C 34693 hPa West 29.8 km/h 29.8 km/h 66 % 0 mm 0.0 W/m2 CLR
05:20 -9.9 °C -13.4 °C 34693 hPa West 47.6 km/h 47.6 km/h 66 % 0 mm 0.0 W/m2 CLR
05:25 -10 °C -13.5 °C 34693 hPa West 41.7 km/h 41.7 km/h 66 % 0 mm 0.0 W/m2 CLR
05:30 -10 °C -13.5 °C 34693 hPa West 29.8 km/h 29.8 km/h 66 % 0 mm 0.0 W/m2 CLR
05:35 -10.1 °C -13.5 °C 34693 hPa WNW 38.8 km/h 38.8 km/h 66 % 0 mm 0.0 W/m2 CLR
05:40 -10.1 °C -13.6 °C 34693 hPa West 41.4 km/h 41.4 km/h 66 % 0 mm 0.0 W/m2 CLR
05:45 -10.1 °C -13.6 °C 34693 hPa WNW 38.8 km/h 38.8 km/h 66 % 0 mm 0.0 W/m2 CLR
05:50 -10.1 °C -13.6 °C 34682.8 hPa West 50.7 km/h 50.7 km/h 66 % 0 mm 0.0 W/m2 CLR
05:55 -10.1 °C -13.6 °C 34693 hPa WNW 44.7 km/h 44.7 km/h 66 % 0 mm 0.0 W/m2 CLR
06:00 -10.1 °C -13.6 °C 34693 hPa West 35.7 km/h 35.7 km/h 66 % 0 mm 0.0 W/m2 CLR
06:05 -10.1 °C -13.6 °C 34693 hPa West 35.7 km/h 35.7 km/h 66 % 0 mm 0.0 W/m2 CLR
06:10 -10.1 °C -13.6 °C 34693 hPa West 32.8 km/h 32.8 km/h 66 % 0 mm 0.0 W/m2 CLR
06:15 -10.1 °C -13.7 °C 34693 hPa WSW 41.7 km/h 41.7 km/h 65 % 0 mm 0.0 W/m2 CLR
06:20 -10 °C -13.6 °C 34693 hPa WNW 41.7 km/h 41.7 km/h 65 % 0 mm 0.0 W/m2 CLR
06:25 -10.1 °C -13.7 °C 34693 hPa WNW 35.7 km/h 35.7 km/h 65 % 0 mm 0.0 W/m2 OVC
06:26 -10.1 °C -13.7 °C 34693 hPa WNW 32.8 km/h 32.8 km/h 65 % 0 mm 0.0 W/m2 OVC
06:31 -10.1 °C -13.7 °C 34693 hPa WNW 32.8 km/h 32.8 km/h 65 % 0 mm 0.0 W/m2 OVC
06:36 -10.1 °C -13.7 °C 34703.1 hPa WNW 31.1 km/h 31.1 km/h 65 % 0 mm 5.0 W/m2 OVC
06:41 -10.1 °C -13.7 °C 34703.1 hPa WSW 29.8 km/h 29.8 km/h 65 % 0 mm 9.0 W/m2 BKN
06:46 -10.1 °C -13.7 °C 34703.1 hPa West 35.7 km/h 35.7 km/h 65 % 0 mm 11.0 W/m2 BKN
06:51 -10.1 °C -13.7 °C 34703.1 hPa WSW 26.9 km/h 26.9 km/h 65 % 0 mm 12.0 W/m2 BKN
06:56 -10.1 °C -13.7 °C 34703.1 hPa West 29.8 km/h 29.8 km/h 65 % 0 mm 16.0 W/m2 BKN
07:01 -10.1 °C -13.7 °C 34703.1 hPa WSW 28.5 km/h 28.5 km/h 65 % 0 mm 16.0 W/m2 BKN
07:06 -10.1 °C -13.7 °C 34703.1 hPa West 31.1 km/h 31.1 km/h 65 % 0 mm 21.0 W/m2 BKN
07:11 -10.1 °C -13.7 °C 34703.1 hPa WSW 28.5 km/h 28.5 km/h 65 % 0 mm 32.0 W/m2 BKN
07:16 -10.1 °C -13.8 °C 34703.1 hPa West 35.7 km/h 35.7 km/h 64 % 0 mm 42.0 W/m2 BKN
07:21 -10 °C -13.7 °C 34703.1 hPa West 29.8 km/h 29.8 km/h 64 % 0 mm 53.0 W/m2 SCT
07:26 -9.9 °C -13.7 °C 34703.1 hPa West 25.9 km/h 25.9 km/h 64 % 0 mm 63.0 W/m2 SCT
07:31 -9.9 °C -13.7 °C 34703.1 hPa West 35.7 km/h 35.7 km/h 64 % 0 mm 77.0 W/m2 FEW
07:36 -9.9 °C -13.7 °C 34703.1 hPa West 29.8 km/h 29.8 km/h 63 % 0 mm 90.0 W/m2 FEW
07:41 -9.8 °C -13.7 °C 34703.1 hPa WNW 35.7 km/h 35.7 km/h 63 % 0 mm 105.0 W/m2 CLR
07:46 -9.7 °C -13.6 °C 34716.7 hPa West 35.7 km/h 35.7 km/h 63 % 0 mm 121.0 W/m2 CLR
07:51 -9.7 °C -13.7 °C 34716.7 hPa West 38.8 km/h 38.8 km/h 62 % 0 mm 139.0 W/m2 CLR
07:56 -9.6 °C -13.6 °C 34703.1 hPa WNW 29.8 km/h 29.8 km/h 62 % 0 mm 153.0 W/m2 CLR
08:01 -9.6 °C -13.6 °C 34716.7 hPa West 36.2 km/h 36.2 km/h 62 % 0 mm 169.0 W/m2 CLR
08:06 -9.5 °C -13.6 °C 34716.7 hPa WNW 47.6 km/h 47.6 km/h 61 % 0 mm 186.0 W/m2 CLR
08:11 -9.4 °C -13.6 °C 34716.7 hPa West 47.6 km/h 47.6 km/h 61 % 0 mm 206.0 W/m2 CLR
08:16 -9.3 °C -13.5 °C 34716.7 hPa NW 41.7 km/h 41.7 km/h 61 % 0 mm 221.0 W/m2 CLR
08:21 -9.3 °C -13.4 °C 34716.7 hPa WSW 38.8 km/h 38.8 km/h 61 % 0 mm 237.0 W/m2 CLR
08:26 -9.2 °C -13.4 °C 34716.7 hPa West 32.8 km/h 32.8 km/h 61 % 0 mm 251.0 W/m2 CLR
08:31 -9.2 °C -13.4 °C 34716.7 hPa WNW 47.6 km/h 47.6 km/h 60 % 0 mm 269.0 W/m2 CLR
08:36 -9.1 °C -13.4 °C 34716.7 hPa West 32.8 km/h 32.8 km/h 60 % 0 mm 285.0 W/m2 CLR
08:41 -9.1 °C -13.4 °C 34716.7 hPa West 53.6 km/h 53.6 km/h 60 % 0 mm 299.0 W/m2 CLR
08:46 -9.1 °C -13.4 °C 34716.7 hPa NW 44.7 km/h 44.7 km/h 60 % 0 mm 313.0 W/m2 CLR
08:51 -9 °C -13.3 °C 34716.7 hPa WNW 50.7 km/h 50.7 km/h 60 % 0 mm 329.0 W/m2 CLR
08:56 -8.8 °C -13.3 °C 34716.7 hPa WNW 29.8 km/h 29.8 km/h 59 % 0 mm 346.0 W/m2 CLR
09:01 -8.7 °C -13.3 °C 34716.7 hPa West 50.7 km/h 50.7 km/h 58 % 0 mm 362.0 W/m2 CLR
09:06 -8.7 °C -13.2 °C 34716.7 hPa WNW 50.7 km/h 50.7 km/h 59 % 0 mm 376.0 W/m2 CLR
09:11 -8.8 °C -13.2 °C 34716.7 hPa NW 50.7 km/h 50.7 km/h 59 % 0 mm 390.0 W/m2 CLR
09:16 -8.7 °C -13.2 °C 34716.7 hPa WNW 44.7 km/h 44.7 km/h 59 % 0 mm 408.0 W/m2 CLR
09:21 -8.6 °C -13.2 °C 34716.7 hPa West 47.6 km/h 47.6 km/h 58 % 0 mm 422.0 W/m2 CLR
09:26 -8.4 °C -12.9 °C 34716.7 hPa West 31.1 km/h 31.1 km/h 59 % 0 mm 439.0 W/m2 CLR
09:31 -8.5 °C -13.1 °C 34716.7 hPa West 41.7 km/h 41.7 km/h 58 % 0 mm 454.0 W/m2 CLR
09:36 -8.4 °C -13.1 °C 34716.7 hPa NW 41.4 km/h 41.4 km/h 58 % 0 mm 475.0 W/m2 CLR
09:41 -8.3 °C -13.1 °C 34716.7 hPa WNW 51.8 km/h 51.8 km/h 57 % 0 mm 487.0 W/m2 CLR
09:47 -8.3 °C -12.9 °C 34716.7 hPa West 35.7 km/h 35.7 km/h 58 % 0 mm 499.0 W/m2 CLR
09:52 -8.2 °C -13 °C 34716.7 hPa West 44.7 km/h 44.7 km/h 57 % 0 mm 526.0 W/m2 CLR
09:57 -8.1 °C -12.8 °C 34716.7 hPa West 47.6 km/h 47.6 km/h 57 % 0 mm 538.0 W/m2 CLR
10:02 -8.2 °C -12.8 °C 34703.1 hPa NW 38.8 km/h 38.8 km/h 58 % 0 mm 573.0 W/m2 CLR
10:07 -8 °C -12.8 °C 34703.1 hPa WNW 41.7 km/h 41.7 km/h 57 % 0 mm 564.0 W/m2 CLR
10:12 -7.8 °C -12.9 °C 34703.1 hPa NW 44.1 km/h 44.1 km/h 55 % 0 mm 577.0 W/m2 CLR
10:17 -7.8 °C -12.9 °C 34703.1 hPa NNW 50.7 km/h 50.7 km/h 55 % 0 mm 596.0 W/m2 CLR
10:22 -7.8 °C -12.9 °C 34703.1 hPa West 53.6 km/h 53.6 km/h 55 % 0 mm 601.0 W/m2 CLR
10:27 -7.8 °C -12.9 °C 34703.1 hPa WNW 50.7 km/h 50.7 km/h 55 % 0 mm 621.0 W/m2 CLR
10:32 -7.7 °C -12.8 °C 34703.1 hPa NNW 44.7 km/h 44.7 km/h 55 % 0 mm 633.0 W/m2 CLR
10:37 -7.6 °C -12.7 °C 34703.1 hPa NW 32.8 km/h 32.8 km/h 55 % 0 mm 643.0 W/m2 CLR
10:42 -7.3 °C -12.7 °C 34703.1 hPa WNW 50.7 km/h 50.7 km/h 53 % 0 mm 657.0 W/m2 CLR
10:47 -7.3 °C -12.8 °C 34703.1 hPa NNW 44.7 km/h 44.7 km/h 53 % 0 mm 670.0 W/m2 CLR
10:52 -7.3 °C -12.7 °C 34703.1 hPa NW 44.7 km/h 44.7 km/h 53 % 0 mm 682.0 W/m2 CLR
10:58 -7.2 °C -12.7 °C 34703.1 hPa NW 54.4 km/h 54.4 km/h 53 % 0 mm 694.0 W/m2 CLR
11:02 -7.2 °C -12.8 °C 34703.1 hPa WNW 38.8 km/h 39.9 km/h 52 % 0 mm 707.0 W/m2 CLR
11:07 -7.1 °C -12.7 °C 34703.1 hPa West 50.7 km/h 50.7 km/h 52 % 0 mm 717.0 W/m2 CLR
11:12 -7.1 °C -12.7 °C 34703.1 hPa NW 38.8 km/h 38.8 km/h 52 % 0 mm 731.0 W/m2 CLR
11:17 -6.9 °C -12.5 °C 34703.1 hPa NW 29.8 km/h 29.8 km/h 52 % 0 mm 740.0 W/m2 CLR
11:23 -6.7 °C -12.4 °C 34693 hPa West 41.4 km/h 41.4 km/h 51 % 0 mm 752.0 W/m2 CLR
11:28 -6.7 °C -12.6 °C 34703.1 hPa West 47.6 km/h 47.6 km/h 51 % 0 mm 763.0 W/m2 CLR
11:33 -6.6 °C -12.7 °C 34703.1 hPa WNW 38.8 km/h 38.8 km/h 49 % 0 mm 775.0 W/m2 CLR
11:38 -6.7 °C -12.6 °C 34703.1 hPa NNW 38.8 km/h 38.8 km/h 50 % 0 mm 786.0 W/m2 CLR
11:43 -6.6 °C -12.7 °C 34703.1 hPa WNW 50.7 km/h 50.7 km/h 49 % 0 mm 796.0 W/m2 CLR
11:48 -6.5 °C -12.7 °C 34703.1 hPa WNW 29.8 km/h 29.8 km/h 49 % 0 mm 803.0 W/m2 CLR
11:53 -6.6 °C -12.7 °C 34693 hPa West 38.8 km/h 38.8 km/h 49 % 0 mm 814.0 W/m2 CLR
11:58 -6.7 °C -12.8 °C 34693 hPa NW 29.8 km/h 29.8 km/h 49 % 0 mm 823.0 W/m2 CLR
12:03 -6.6 °C -12.7 °C 34693 hPa West 32.8 km/h 32.8 km/h 49 % 0 mm 831.0 W/m2 CLR
12:08 -6.3 °C -12.4 °C 34693 hPa WNW 41.7 km/h 41.7 km/h 49 % 0 mm 837.0 W/m2 CLR
12:13 -6 °C -12.6 °C 34693 hPa NNW 41.7 km/h 41.7 km/h 47 % 0 mm 849.0 W/m2 CLR
12:18 -5.9 °C -12.5 °C 34693 hPa West 38.8 km/h 38.8 km/h 47 % 0 mm 858.0 W/m2 CLR
12:23 -5.9 °C -12.4 °C 34693 hPa NW 35.7 km/h 35.7 km/h 47 % 0 mm 865.0 W/m2 CLR
12:28 -5.8 °C -12.6 °C 34693 hPa WNW 47.6 km/h 47.6 km/h 46 % 0 mm 872.0 W/m2 CLR
12:33 -5.8 °C -12.6 °C 34693 hPa WNW 46.7 km/h 46.7 km/h 46 % 0 mm 881.0 W/m2 CLR
12:38 -5.7 °C -12.6 °C 34693 hPa WNW 36.2 km/h 36.2 km/h 45 % 0 mm 886.0 W/m2 CLR
12:43 -5.8 °C -12.6 °C 34682.8 hPa WNW 41.7 km/h 41.7 km/h 46 % 0 mm 891.0 W/m2 CLR
12:48 -5.7 °C -12.6 °C 34682.8 hPa NNW 26.9 km/h 26.9 km/h 45 % 0 mm 896.0 W/m2 CLR
12:49 -5.7 °C -12.4 °C 34682.8 hPa NNW 38.8 km/h 38.8 km/h 46 % 0 mm 896.0 W/m2 CLR
12:54 -5.5 °C -12.4 °C 34682.8 hPa North 41.7 km/h 41.7 km/h 45 % 0 mm 902.0 W/m2 CLR
12:59 -5.4 °C -12.4 °C 34682.8 hPa NNW 35.7 km/h 35.7 km/h 45 % 0 mm 909.0 W/m2 CLR
13:04 -5.3 °C -12.4 °C 34682.8 hPa NW 38.8 km/h 38.8 km/h 44 % 0 mm 916.0 W/m2 CLR
13:09 -5.2 °C -12.4 °C 34682.8 hPa West 50.7 km/h 50.7 km/h 44 % 0 mm 919.0 W/m2 CLR
13:14 -5.2 °C -12.4 °C 34682.8 hPa West 32.8 km/h 32.8 km/h 44 % 0 mm 923.0 W/m2 CLR
13:19 -5.3 °C -12.3 °C 34682.8 hPa NW 36.2 km/h 36.2 km/h 45 % 0 mm 926.0 W/m2 CLR
13:24 -5.1 °C -12.3 °C 34682.8 hPa WNW 23.8 km/h 23.8 km/h 44 % 0 mm 930.0 W/m2 CLR
13:29 -4.9 °C -12.4 °C 34682.8 hPa North 35.7 km/h 35.7 km/h 42 % 0 mm 932.0 W/m2 CLR
13:34 -4.8 °C -12.4 °C 34682.8 hPa WNW 36.2 km/h 36.2 km/h 42 % 0 mm 935.0 W/m2 CLR
13:39 -4.9 °C -12.3 °C 34669.3 hPa NNW 26.9 km/h 26.9 km/h 43 % 0 mm 937.0 W/m2 CLR
13:44 -4.6 °C -12.4 °C 34669.3 hPa NNW 41.7 km/h 41.7 km/h 41 % 0 mm 939.0 W/m2 CLR
13:49 -4.6 °C -12.4 °C 34669.3 hPa NNW 35.7 km/h 35.7 km/h 41 % 0 mm 942.0 W/m2 CLR
13:54 -4.5 °C -12.6 °C 34669.3 hPa NW 33.6 km/h 33.6 km/h 40 % 0 mm 942.0 W/m2 CLR
13:59 -4.7 °C -12.4 °C 34669.3 hPa WNW 29.8 km/h 29.8 km/h 41 % 0 mm 942.0 W/m2 CLR
14:04 -4.6 °C -12.4 °C 34669.3 hPa WNW 36.2 km/h 36.2 km/h 41 % 0 mm 940.0 W/m2 CLR
14:09 -4.5 °C -12.5 °C 34659.1 hPa WNW 35.7 km/h 35.7 km/h 40 % 0 mm 942.0 W/m2 CLR
14:14 -4.5 °C -12.5 °C 34659.1 hPa WNW 41.7 km/h 41.7 km/h 40 % 0 mm 942.0 W/m2 CLR
14:19 -4.4 °C -12.4 °C 34659.1 hPa WNW 35.7 km/h 35.7 km/h 40 % 0 mm 944.0 W/m2 CLR
14:24 -4.3 °C -12.3 °C 34659.1 hPa NW 47.6 km/h 47.6 km/h 40 % 0 mm 940.0 W/m2 CLR
14:29 -4.3 °C -12.5 °C 34659.1 hPa NNW 29.8 km/h 29.8 km/h 39 % 0 mm 939.0 W/m2 CLR
14:34 -4.1 °C -12.3 °C 34659.1 hPa NW 41.7 km/h 41.7 km/h 39 % 0 mm 935.0 W/m2 CLR
14:39 -4.1 °C -12.4 °C 34659.1 hPa NNW 29.8 km/h 29.8 km/h 39 % 0 mm 933.0 W/m2 CLR
14:44 -4.1 °C -12.3 °C 34645.6 hPa West 35.7 km/h 35.7 km/h 39 % 0 mm 932.0 W/m2 CLR
14:49 -4.1 °C -12.4 °C 34645.6 hPa NW 25.9 km/h 25.9 km/h 39 % 0 mm 928.0 W/m2 CLR
14:54 -4 °C -12.3 °C 34645.6 hPa NW 47.6 km/h 47.6 km/h 39 % 0 mm 923.0 W/m2 CLR
14:59 -3.9 °C -12.2 °C 34645.6 hPa WNW 20.8 km/h 20.8 km/h 39 % 0 mm 918.0 W/m2 CLR
15:04 -3.9 °C -12.4 °C 34645.6 hPa NW 47.6 km/h 47.6 km/h 38 % 0 mm 919.0 W/m2 CLR
15:09 -3.9 °C -12.4 °C 34635.4 hPa NW 44.7 km/h 44.7 km/h 38 % 0 mm 911.0 W/m2 CLR
15:10 -3.9 °C -12.4 °C 34635.4 hPa NW 44.7 km/h 44.7 km/h 38 % 0 mm 911.0 W/m2 CLR
15:15 -3.8 °C -12.8 °C 34635.4 hPa NW 26.9 km/h 26.9 km/h 36 % 0 mm 905.0 W/m2 CLR
15:20 -3.9 °C -12.4 °C 34635.4 hPa NW 20.9 km/h 20.9 km/h 38 % 0 mm 900.0 W/m2 CLR
15:25 -3.7 °C -12.4 °C 34635.4 hPa North 35.7 km/h 35.7 km/h 37 % 0 mm 895.0 W/m2 CLR
15:30 -3.6 °C -12.4 °C 34625.2 hPa NW 32.8 km/h 32.8 km/h 37 % 0 mm 891.0 W/m2 CLR
15:35 -3.6 °C -12.4 °C 34625.2 hPa WNW 6 km/h   37 % 0 mm 881.0 W/m2 CLR
15:40 -3.5 °C -12.3 °C 34625.2 hPa North 35.7 km/h 35.7 km/h 37 % 0 mm 875.0 W/m2 CLR
15:45 -3.5 °C -12.3 °C 34625.2 hPa WNW 29.8 km/h 29.8 km/h 37 % 0 mm 868.0 W/m2 CLR
15:50 -3.5 °C -12.3 °C 34625.2 hPa NW 29.8 km/h 29.8 km/h 37 % 0 mm 860.0 W/m2 CLR
15:55 -3.4 °C -12.2 °C 34611.7 hPa WNW 31.1 km/h 31.1 km/h 37 % 0 mm 853.0 W/m2 CLR
16:00 -3.2 °C -12.3 °C 34611.7 hPa NNW 38.8 km/h 38.8 km/h 36 % 0 mm 847.0 W/m2 CLR
16:05 -3.2 °C -12.3 °C 34611.7 hPa WNW 32.8 km/h 32.8 km/h 36 % 0 mm 837.0 W/m2 CLR
16:10 -3.3 °C -12.3 °C 34611.7 hPa NW 29.8 km/h 29.8 km/h 36 % 0 mm 826.0 W/m2 CLR
16:15 -3.2 °C -12.3 °C 34611.7 hPa West 32.8 km/h 32.8 km/h 36 % 0 mm 819.0 W/m2 CLR
16:20 -3.3 °C -12.3 °C 34611.7 hPa NNW 41.7 km/h 41.7 km/h 36 % 0 mm 812.0 W/m2 CLR
16:25 -3.4 °C -12.4 °C 34611.7 hPa NNW 32.8 km/h 32.8 km/h 36 % 0 mm 800.0 W/m2 CLR
16:30 -3.2 °C -12.3 °C 34601.5 hPa WNW 29.8 km/h 29.8 km/h 36 % 0 mm 788.0 W/m2 CLR
16:35 -3.1 °C -12.4 °C 34601.5 hPa NW 35.7 km/h 35.7 km/h 35 % 0 mm 780.0 W/m2 CLR
16:40 -3 °C -12.3 °C 34601.5 hPa West 41.7 km/h 41.7 km/h 35 % 0 mm 768.0 W/m2 CLR
16:45 -2.9 °C -12.2 °C 34601.5 hPa WNW 26.9 km/h 26.9 km/h 35 % 0 mm 761.0 W/m2 CLR
16:50 -2.9 °C -12.2 °C 34601.5 hPa NW 15 km/h 15 km/h 35 % 0 mm 749.0 W/m2 CLR
16:55 -2.9 °C -12.2 °C 34591.4 hPa NW 35.7 km/h 35.7 km/h 35 % 0 mm 738.0 W/m2 CLR
17:00 -2.9 °C -12.2 °C 34591.4 hPa WNW 29.8 km/h 29.8 km/h 35 % 0 mm 728.0 W/m2 CLR
17:05 -2.9 °C -12.2 °C 34591.4 hPa WSW 3.1 km/h 3.1 km/h 35 % 0 mm 717.0 W/m2 CLR
17:10 -2.8 °C -12.1 °C 34591.4 hPa NNW 29.8 km/h 29.8 km/h 35 % 0 mm 703.0 W/m2 CLR
17:15 -2.7 °C -12.3 °C 34591.4 hPa West 29.8 km/h 29.8 km/h 34 % 0 mm 693.0 W/m2 CLR
17:20 -2.7 °C -12.3 °C 34591.4 hPa WNW 41.7 km/h 41.7 km/h 34 % 0 mm 679.0 W/m2 CLR
17:25 -2.7 °C -12.1 °C 34591.4 hPa NNE 26.9 km/h 26.9 km/h 35 % 0 mm 668.0 W/m2 CLR
17:30 -2.6 °C -12.2 °C 34591.4 hPa NW 38.8 km/h 38.8 km/h 34 % 0 mm 654.0 W/m2 CLR
17:35 -2.7 °C -12.2 °C 34577.8 hPa West 38.8 km/h 38.8 km/h 34 % 0 mm 642.0 W/m2 CLR
17:40 -2.8 °C -12.1 °C 34577.8 hPa WNW 17.9 km/h 17.9 km/h 35 % 0 mm 628.0 W/m2 CLR
17:45 -2.7 °C -12.1 °C 34577.8 hPa WNW 38.8 km/h 38.8 km/h 35 % 0 mm 613.0 W/m2 CLR
17:50 -2.7 °C -12 °C 34577.8 hPa North 32.8 km/h 32.8 km/h 35 % 0 mm 598.0 W/m2 CLR
17:55 -2.6 °C -11.9 °C 34577.8 hPa NW 20.9 km/h 20.9 km/h 35 % 0 mm 584.0 W/m2 CLR
18:00 -2.4 °C -12.1 °C 34577.8 hPa WNW 20.9 km/h 20.9 km/h 34 % 0 mm 570.0 W/m2 CLR
18:05 -2.4 °C -12.1 °C 34577.8 hPa WNW 17.9 km/h 17.9 km/h 34 % 0 mm 559.0 W/m2 CLR
18:10 -2.5 °C -12.1 °C 34567.7 hPa NW 31.1 km/h 31.1 km/h 34 % 0 mm 545.0 W/m2 CLR
18:15 -2.6 °C -12.2 °C 34567.7 hPa NNE 9 km/h 9 km/h 34 % 0 mm 527.0 W/m2 CLR
18:20 -2.4 °C -12.1 °C 34567.7 hPa North 17.9 km/h 17.9 km/h 34 % 0 mm 513.0 W/m2 CLR
18:25 -2.4 °C -12 °C 34567.7 hPa NNW 35.7 km/h 35.7 km/h 34 % 0 mm 499.0 W/m2 CLR
18:30 -2.4 °C -12 °C 34567.7 hPa NW 20.9 km/h 20.9 km/h 34 % 0 mm 483.0 W/m2 CLR
18:35 -2.3 °C -11.9 °C 34567.7 hPa NNW 23.3 km/h 23.3 km/h 34 % 0 mm 466.0 W/m2 CLR
18:40 -2.4 °C -12.1 °C 34567.7 hPa North 32.8 km/h 32.8 km/h 34 % 0 mm 452.0 W/m2 CLR
18:45 -2.4 °C -12.1 °C 34567.7 hPa NNW 20.8 km/h 20.8 km/h 34 % 0 mm 438.0 W/m2 CLR
18:50 -2.3 °C -11.9 °C 34554.1 hPa NW 6 km/h 6 km/h 34 % 0 mm 424.0 W/m2 CLR
18:55 -2.2 °C -12.1 °C 34554.1 hPa Calm   0.5 km/h 33 % 0 mm 408.0 W/m2 CLR
19:00 -2.3 °C -11.9 °C 34567.7 hPa NW 38.8 km/h 38.8 km/h 34 % 0 mm 390.0 W/m2 CLR
19:05 -2.4 °C -12 °C 34567.7 hPa NNW 23.3 km/h 23.3 km/h 34 % 0 mm 374.0 W/m2 CLR
19:10 -2.4 °C -12.1 °C 34567.7 hPa NNW 29.8 km/h 29.8 km/h 34 % 0 mm 360.0 W/m2 CLR
19:15 -2.4 °C -12.1 °C 34554.1 hPa NNW 38.8 km/h 38.8 km/h 34 % 0 mm 346.0 W/m2 CLR
19:20 -2.6 °C -11.9 °C 34567.7 hPa NW 35.7 km/h 35.7 km/h 35 % 0 mm 327.0 W/m2 CLR
19:25 -2.6 °C -11.9 °C 34567.7 hPa NW 32.8 km/h 32.8 km/h 35 % 0 mm 313.0 W/m2 CLR
19:30 -2.6 °C -11.9 °C 34567.7 hPa NW 10.3 km/h 10.3 km/h 35 % 0 mm 299.0 W/m2 CLR
19:35 -2.6 °C -12.2 °C 34567.7 hPa NW 29.8 km/h 29.8 km/h 34 % 0 mm 283.0 W/m2 CLR
19:40 -2.6 °C -11.9 °C 34567.7 hPa West 31.1 km/h 31.1 km/h 35 % 0 mm 265.0 W/m2 CLR
19:45 -2.7 °C -12 °C 34554.1 hPa NNW 33.6 km/h 33.6 km/h 35 % 0 mm 251.0 W/m2 CLR
19:50 -2.6 °C -11.9 °C 34554.1 hPa NW 29.8 km/h 29.8 km/h 35 % 0 mm 237.0 W/m2 CLR
19:55 -2.6 °C -12.2 °C 34554.1 hPa WNW 26.9 km/h 26.9 km/h 34 % 0 mm 221.0 W/m2 CLR
20:00 -2.7 °C -12.2 °C 34567.7 hPa WNW 29.8 km/h 29.8 km/h 34 % 0 mm 200.0 W/m2 CLR
20:05 -2.7 °C -12.3 °C 34567.7 hPa NNW 28.5 km/h 28.5 km/h 34 % 0 mm 185.0 W/m2 CLR
20:10 -2.7 °C -12.3 °C 34567.7 hPa WNW 10.3 km/h 10.3 km/h 34 % 0 mm 167.0 W/m2 CLR
20:15 -2.7 °C -12.3 °C 34567.7 hPa NNW 7.7 km/h 7.7 km/h 34 % 0 mm 151.0 W/m2 CLR
20:20 -2.7 °C -12.3 °C 34567.7 hPa WNW 29.8 km/h 29.8 km/h 34 % 0 mm 135.0 W/m2 CLR
20:25 -2.8 °C -12.3 °C 34567.7 hPa NNW 26.9 km/h 26.9 km/h 34 % 0 mm 116.0 W/m2 CLR
20:30 -2.8 °C -12.2 °C 34567.7 hPa WNW 29.8 km/h 29.8 km/h 35 % 0 mm 100.0 W/m2 CLR
20:35 -2.9 °C -12.2 °C 34567.7 hPa NNW 6 km/h 6 km/h 35 % 0 mm 86.0 W/m2 CLR
20:40 -3 °C -12.3 °C 34567.7 hPa NW 29.8 km/h 29.8 km/h 35 % 0 mm 74.0 W/m2 FEW
20:45 -3.1 °C -12.3 °C 34567.7 hPa NNW 23.3 km/h 23.3 km/h 35 % 0 mm 60.0 W/m2 SCT
20:50 -3.1 °C -12.4 °C 34567.7 hPa NNW 17.9 km/h 17.9 km/h 35 % 0 mm 19.0 W/m2 BKN
20:55 -3.1 °C -12.4 °C 34567.7 hPa NNW 6 km/h 6 km/h 35 % 0 mm 35.0 W/m2 BKN
21:00 -3.2 °C -12.4 °C 34567.7 hPa NW 17.9 km/h 17.9 km/h 35 % 0 mm 26.0 W/m2 BKN
21:05 -3.2 °C -12.5 °C 34577.8 hPa NW 17.9 km/h 17.9 km/h 35 % 0 mm 19.0 W/m2 BKN
21:10 -3.3 °C -12.3 °C 34577.8 hPa WNW 6 km/h 6 km/h 36 % 0 mm 12.0 W/m2 BKN
21:15 -3.5 °C -12.5 °C 34577.8 hPa NW 9 km/h 9 km/h 36 % 0 mm 12.0 W/m2 BKN
21:20 -3.6 °C -12.6 °C 34577.8 hPa NW 6 km/h 6 km/h 36 % 0 mm 11.0 W/m2 BKN
21:25 -3.7 °C -12.4 °C 34577.8 hPa WNW 9 km/h 9 km/h 37 % 0 mm 9.0 W/m2 BKN
21:30 -3.8 °C -12.6 °C 34577.8 hPa NW 9 km/h 9 km/h 37 % 0 mm 5.0 W/m2 BKN
21:35 -3.9 °C -12.7 °C 34577.8 hPa Calm     37 % 0 mm 5.0 W/m2 OVC
21:40 -4.1 °C -12.6 °C 34577.8 hPa NW 9 km/h 9 km/h 38 % 0 mm 0.0 W/m2 OVC
21:46 -4.2 °C -12.7 °C 34577.8 hPa Calm     38 % 0 mm 0.0 W/m2 OVC
21:50 -4.3 °C -12.5 °C 34577.8 hPa Calm     39 % 0 mm 0.0 W/m2 CLR
21:56 -4.4 °C -12.6 °C 34591.4 hPa Calm     39 % 0 mm 0.0 W/m2 CLR
22:01 -4.6 °C -12.6 °C 34591.4 hPa Calm     40 % 0 mm 0.0 W/m2 CLR
22:06 -4.8 °C -12.7 °C 34591.4 hPa Calm     40 % 0 mm 0.0 W/m2 CLR
22:11 -4.8 °C -12.6 °C 34591.4 hPa Calm     41 % 0 mm 0.0 W/m2 CLR
22:16 -4.9 °C -12.7 °C 34591.4 hPa Calm     41 % 0 mm 0.0 W/m2 CLR
22:21 -4.9 °C -12.7 °C 34591.4 hPa Calm     41 % 0 mm 0.0 W/m2 CLR
22:26 -5.1 °C -12.6 °C 34601.5 hPa Calm     42 % 0 mm 0.0 W/m2 CLR
22:31 -5.1 °C -12.7 °C 34601.5 hPa WNW 11.9 km/h 11.9 km/h 42 % 0 mm 0.0 W/m2 CLR
22:32 -5.1 °C -12.6 °C 34601.5 hPa WNW 11.9 km/h 11.9 km/h 42 % 0 mm 0.0 W/m2 CLR
22:37 -5.1 °C -12.6 °C 34601.5 hPa WNW 9 km/h 9 km/h 42 % 0 mm 0.0 W/m2 CLR
22:42 -5.1 °C -12.6 °C 34601.5 hPa WNW 9 km/h 9 km/h 42 % 0 mm 0.0 W/m2 CLR
22:47 -5.1 °C -12.7 °C 34601.5 hPa WNW 6 km/h   42 % 0 mm 0.0 W/m2 CLR
22:52 -5.2 °C -12.7 °C 34611.7 hPa Calm     42 % 0 mm 0.0 W/m2 CLR
22:57 -5.2 °C -12.7 °C 34611.7 hPa WNW 26.9 km/h 26.9 km/h 42 % 0 mm 0.0 W/m2 CLR
23:02 -5.2 °C -12.7 °C 34611.7 hPa NW 9 km/h 9 km/h 42 % 0 mm 0.0 W/m2 CLR
23:07 -5.2 °C -12.6 °C 34611.7 hPa West 20.9 km/h 20.9 km/h 43 % 0 mm 0.0 W/m2 CLR
23:12 -5.2 °C -12.7 °C 34611.7 hPa WNW 18.2 km/h 18.2 km/h 42 % 0 mm 0.0 W/m2 CLR
23:17 -5.2 °C -12.6 °C 34611.7 hPa WNW 11.9 km/h 11.9 km/h 43 % 0 mm 0.0 W/m2 CLR
23:22 -5.2 °C -12.6 °C 34611.7 hPa WNW 9 km/h 9 km/h 43 % 0 mm 0.0 W/m2 CLR
23:27 -5.3 °C -12.7 °C 34625.2 hPa West 7.7 km/h 7.7 km/h 43 % 0 mm 0.0 W/m2 CLR
23:32 -5.4 °C -12.6 °C 34625.2 hPa West 11.9 km/h 11.9 km/h 44 % 0 mm 0.0 W/m2 CLR
23:38 -5.4 °C -12.6 °C 34625.2 hPa WNW 15 km/h 15 km/h 44 % 0 mm 0.0 W/m2 CLR
23:43 -5.5 °C -12.6 °C 34625.2 hPa West 11.9 km/h 11.9 km/h 44 % 0 mm 0.0 W/m2 CLR
23:48 -5.6 °C -12.5 °C 34625.2 hPa Calm     45 % 0 mm 0.0 W/m2 CLR
23:53 -5.7 °C -12.4 °C 34625.2 hPa West 6 km/h 6 km/h 46 % 0 mm 0.0 W/m2 CLR
23:58 -5.7 °C -12.4 °C 34625.2 hPa Calm     46 % 0 mm 0.0 W/m2 CLR
Lo Temps de Massalio
Compliments of Weather Underground - 1.25 mb